createdAt,value
2023-03-22T00:00:25.010Z,6.03
2023-03-22T00:00:55.868Z,5.86
2023-03-22T00:01:15.518Z,5.86
2023-03-22T00:01:36.227Z,6.03
2023-03-22T00:01:59.757Z,5.86
2023-03-22T00:02:33.461Z,5.86
2023-03-22T00:03:05.254Z,5.86
2023-03-22T00:03:35.685Z,5.86
2023-03-22T00:03:53.154Z,5.86
2023-03-22T00:04:25.353Z,5.86
2023-03-22T00:04:56.099Z,6.03
2023-03-22T00:05:28.473Z,6.03
2023-03-22T00:06:00.216Z,6.03
2023-03-22T00:06:32.753Z,5.75
2023-03-22T00:07:04.303Z,5.75
2023-03-22T00:07:37.389Z,5.75
2023-03-22T00:08:07.393Z,5.92
2023-03-22T00:08:36.400Z,5.75
2023-03-22T00:08:56.667Z,5.75
2023-03-22T00:09:12.409Z,5.75
2023-03-22T00:09:36.454Z,5.92
2023-03-22T00:09:59.485Z,5.92
2023-03-22T00:10:32.988Z,5.92
2023-03-22T00:11:04.382Z,5.92
2023-03-22T00:11:37.406Z,5.81
2023-03-22T00:12:07.318Z,5.81
2023-03-22T00:12:36.497Z,5.81
2023-03-22T00:12:56.404Z,5.81
2023-03-22T00:13:28.832Z,5.81
2023-03-22T00:14:00.714Z,5.69
2023-03-22T00:14:32.622Z,5.69
2023-03-22T00:15:05.728Z,5.84
2023-03-22T00:15:36.542Z,5.69
2023-03-22T00:16:08.084Z,5.84
2023-03-22T00:16:37.267Z,5.58
2023-03-22T00:16:55.871Z,5.58
2023-03-22T00:17:12.731Z,5.58
2023-03-22T00:17:36.573Z,5.58
2023-03-22T00:18:00.813Z,5.58
2023-03-22T00:18:33.834Z,5.58
2023-03-22T00:19:04.422Z,5.69
2023-03-22T00:19:35.656Z,5.53
2023-03-22T00:20:08.316Z,5.53
2023-03-22T00:20:38.167Z,5.69
2023-03-22T00:20:55.882Z,5.69
2023-03-22T00:21:12.826Z,5.58
2023-03-22T00:21:36.166Z,5.58
2023-03-22T00:22:01.325Z,5.58
2023-03-22T00:22:32.727Z,5.58
2023-03-22T00:23:04.280Z,5.43
2023-03-22T00:23:35.988Z,5.43
2023-03-22T00:24:07.342Z,5.43
2023-03-22T00:24:36.719Z,5.43
2023-03-22T00:24:55.572Z,5.43
2023-03-22T00:25:13.858Z,5.58
2023-03-22T00:25:38.034Z,5.58
2023-03-22T00:26:00.404Z,5.43
2023-03-22T00:26:32.902Z,5.53
2023-03-22T00:27:03.834Z,5.53
2023-03-22T00:27:35.918Z,5.53
2023-03-22T00:28:07.305Z,5.53
2023-03-22T00:28:36.579Z,5.53
2023-03-22T00:28:55.777Z,5.43
2023-03-22T00:29:28.811Z,5.43
2023-03-22T00:30:01.193Z,5.58
2023-03-22T00:30:33.750Z,5.43
2023-03-22T00:31:03.965Z,5.43
2023-03-22T00:31:36.211Z,5.43
2023-03-22T00:32:07.577Z,5.58
2023-03-22T00:32:36.640Z,5.47
2023-03-22T00:32:55.803Z,5.32
2023-03-22T00:33:14.322Z,5.32
2023-03-22T00:33:36.663Z,5.32
2023-03-22T00:34:00.103Z,5.32
2023-03-22T00:34:33.193Z,5.32
2023-03-22T00:35:05.700Z,5.32
2023-03-22T00:35:35.616Z,5.32
2023-03-22T00:35:53.083Z,5.32
2023-03-22T00:36:25.488Z,5.32
2023-03-22T00:36:55.672Z,5.43
2023-03-22T00:37:12.845Z,5.43
2023-03-22T00:37:36.816Z,5.43
2023-03-22T00:37:59.569Z,5.43
2023-03-22T00:38:42.010Z,5.43
2023-03-22T00:39:05.260Z,5.43
2023-03-22T00:39:36.694Z,5.26
2023-03-22T00:40:08.105Z,5.26
2023-03-22T00:40:37.478Z,5.26
2023-03-22T00:40:55.783Z,5.37
2023-03-22T00:41:12.954Z,5.37
2023-03-22T00:41:36.872Z,5.37
2023-03-22T00:42:00.515Z,5.37
2023-03-22T00:42:32.428Z,5.37
2023-03-22T00:43:04.426Z,5.53
2023-03-22T00:43:38.364Z,5.53
2023-03-22T00:44:07.614Z,5.26
2023-03-22T00:44:37.268Z,5.26
2023-03-22T00:44:56.916Z,5.26
2023-03-22T00:45:29.500Z,5.26
2023-03-22T00:46:00.422Z,5.26
2023-03-22T00:46:33.925Z,5.26
2023-03-22T00:47:04.338Z,5.26
2023-03-22T00:47:35.676Z,5.26
2023-03-22T00:47:52.878Z,5.26
2023-03-22T00:48:23.982Z,5.26
2023-03-22T00:48:56.094Z,5.21
2023-03-22T00:49:29.299Z,5.37
2023-03-22T00:49:59.575Z,5.21
2023-03-22T00:50:34.027Z,5.21
2023-03-22T00:51:03.815Z,5.21
2023-03-22T00:51:35.667Z,5.26
2023-03-22T00:51:52.355Z,5.26
2023-03-22T00:52:23.920Z,5.21
2023-03-22T00:52:55.781Z,5.37
2023-03-22T00:53:29.091Z,5.37
2023-03-22T00:54:02.365Z,5.21
2023-03-22T00:54:32.785Z,5.21
2023-03-22T00:55:05.083Z,5.21
2023-03-22T00:55:35.635Z,5.21
2023-03-22T00:55:52.848Z,5.21
2023-03-22T00:56:24.132Z,5.37
2023-03-22T00:56:55.557Z,5.37
2023-03-22T00:57:27.752Z,5.21
2023-03-22T00:58:00.931Z,5.21
2023-03-22T00:58:32.533Z,5.21
2023-03-22T00:59:04.043Z,5.21
2023-03-22T00:59:35.801Z,5.21
2023-03-22T01:00:08.581Z,5.37
2023-03-22T01:00:37.189Z,5.21
2023-03-22T01:00:56.124Z,5.21
2023-03-22T01:01:28.601Z,5.21
2023-03-22T01:02:00.042Z,5.21
2023-03-22T01:02:34.771Z,5.21
2023-03-22T01:03:04.484Z,5.21
2023-03-22T01:03:35.667Z,5.21
2023-03-22T01:03:53.037Z,5.21
2023-03-22T01:04:24.294Z,5.21
2023-03-22T01:04:55.794Z,5.21
2023-03-22T01:05:28.421Z,5.21
2023-03-22T01:06:01.084Z,5.10
2023-03-22T01:06:33.317Z,5.26
2023-03-22T01:07:04.439Z,5.26
2023-03-22T01:07:35.871Z,5.26
2023-03-22T01:07:52.178Z,5.26
2023-03-22T01:08:24.718Z,5.15
2023-03-22T01:08:55.739Z,5.15
2023-03-22T01:09:13.986Z,5.15
2023-03-22T01:09:36.527Z,5.15
2023-03-22T01:10:00.877Z,5.04
2023-03-22T01:10:32.784Z,5.04
2023-03-22T01:11:06.098Z,5.04
2023-03-22T01:11:36.345Z,5.04
2023-03-22T01:12:07.378Z,5.20
2023-03-22T01:12:36.042Z,5.09
2023-03-22T01:12:56.056Z,5.09
2023-03-22T01:13:12.732Z,5.09
2023-03-22T01:13:36.206Z,5.09
2023-03-22T01:13:59.750Z,5.09
2023-03-22T01:14:32.780Z,5.09
2023-03-22T01:15:05.984Z,5.09
2023-03-22T01:15:36.862Z,5.09
2023-03-22T01:16:07.653Z,5.09
2023-03-22T01:16:36.206Z,5.09
2023-03-22T01:16:57.038Z,5.09
2023-03-22T01:17:28.626Z,5.09
2023-03-22T01:18:00.212Z,5.09
2023-03-22T01:18:32.291Z,5.09
2023-03-22T01:19:03.977Z,5.09
2023-03-22T01:19:35.602Z,5.09
2023-03-22T01:19:52.236Z,5.09
2023-03-22T01:20:25.277Z,5.04
2023-03-22T01:20:56.403Z,5.04
2023-03-22T01:21:29.100Z,5.20
2023-03-22T01:22:00.360Z,5.20
2023-03-22T01:22:32.530Z,5.20
2023-03-22T01:23:04.516Z,5.20
2023-03-22T01:23:35.665Z,5.20
2023-03-22T01:24:07.668Z,5.20
2023-03-22T01:24:38.459Z,5.20
2023-03-22T01:25:12.806Z,5.20
2023-03-22T01:25:36.490Z,5.09
2023-03-22T01:26:00.570Z,5.09
2023-03-22T01:26:32.180Z,5.09
2023-03-22T01:27:04.337Z,5.04
2023-03-22T01:27:36.167Z,5.04
2023-03-22T01:28:07.540Z,5.04
2023-03-22T01:28:36.598Z,5.04
2023-03-22T01:28:56.196Z,4.93
2023-03-22T01:29:28.699Z,4.93
2023-03-22T01:30:03.013Z,4.93
2023-03-22T01:30:32.720Z,4.93
2023-03-22T01:31:04.635Z,4.93
2023-03-22T01:31:35.786Z,4.93
2023-03-22T01:32:07.567Z,4.93
2023-03-22T01:32:36.384Z,4.93
2023-03-22T01:32:56.070Z,4.93
2023-03-22T01:33:27.951Z,4.93
2023-03-22T01:33:59.639Z,4.93
2023-03-22T01:34:33.535Z,4.93
2023-03-22T01:35:05.650Z,4.93
2023-03-22T01:35:35.711Z,4.93
2023-03-22T01:36:07.680Z,4.93
2023-03-22T01:36:38.261Z,4.93
2023-03-22T01:36:55.839Z,4.93
2023-03-22T01:37:13.662Z,4.93
2023-03-22T01:37:37.766Z,4.83
2023-03-22T01:38:00.244Z,4.83
2023-03-22T01:38:34.146Z,4.83
2023-03-22T01:39:04.240Z,4.83
2023-03-22T01:39:35.654Z,4.83
2023-03-22T01:40:08.053Z,4.71
2023-03-22T01:40:36.876Z,4.71
2023-03-22T01:40:56.056Z,4.71
2023-03-22T01:41:14.545Z,4.71
2023-03-22T01:41:37.503Z,4.75
2023-03-22T01:41:59.978Z,4.60
2023-03-22T01:42:33.278Z,4.60
2023-03-22T01:43:05.466Z,4.75
2023-03-22T01:43:35.729Z,4.75
2023-03-22T01:44:07.418Z,4.70
2023-03-22T01:44:37.357Z,4.70
2023-03-22T01:44:57.033Z,4.70
2023-03-22T01:45:14.225Z,4.70
2023-03-22T01:45:36.358Z,4.70
2023-03-22T01:46:00.090Z,4.70
2023-03-22T01:46:32.296Z,4.70
2023-03-22T01:47:05.417Z,4.70
2023-03-22T01:47:36.065Z,4.70
2023-03-22T01:48:07.386Z,4.70
2023-03-22T01:48:36.114Z,4.70
2023-03-22T01:48:55.545Z,4.70
2023-03-22T01:49:13.028Z,4.70
2023-03-22T01:49:37.457Z,4.70
2023-03-22T01:49:59.425Z,4.70
2023-03-22T01:50:32.950Z,4.59
2023-03-22T01:51:03.671Z,4.59
2023-03-22T01:51:38.284Z,4.59
2023-03-22T01:52:07.391Z,4.75
2023-03-22T01:52:36.552Z,4.48
2023-03-22T01:52:56.652Z,4.48
2023-03-22T01:53:27.818Z,4.65
2023-03-22T01:53:59.878Z,4.36
2023-03-22T01:54:32.644Z,4.53
2023-03-22T01:55:05.819Z,4.42
2023-03-22T01:55:35.790Z,4.42
2023-03-22T01:56:07.495Z,4.37
2023-03-22T01:56:37.121Z,4.37
2023-03-22T01:56:55.593Z,4.37
2023-03-22T01:57:29.444Z,4.37
2023-03-22T01:58:00.108Z,4.26
2023-03-22T01:58:33.554Z,4.26
2023-03-22T01:59:03.598Z,4.26
2023-03-22T01:59:35.540Z,4.26
2023-03-22T01:59:52.852Z,4.26
2023-03-22T02:00:25.029Z,4.26
2023-03-22T02:00:55.860Z,4.26
2023-03-22T02:01:28.410Z,4.26
2023-03-22T02:02:00.097Z,4.26
2023-03-22T02:02:32.753Z,4.42
2023-03-22T02:03:04.663Z,4.53
2023-03-22T02:03:35.630Z,4.53
2023-03-22T02:03:52.454Z,4.53
2023-03-22T02:04:24.637Z,4.58
2023-03-22T02:04:55.895Z,4.69
2023-03-22T02:05:12.741Z,4.53
2023-03-22T02:05:36.885Z,4.53
2023-03-22T02:06:01.349Z,4.65
2023-03-22T02:06:34.098Z,4.65
2023-03-22T02:07:04.039Z,4.75
2023-03-22T02:07:35.657Z,4.75
2023-03-22T02:07:52.965Z,4.75
2023-03-22T02:08:24.015Z,4.86
2023-03-22T02:08:55.650Z,4.86
2023-03-22T02:09:13.821Z,4.86
2023-03-22T02:09:37.467Z,4.86
2023-03-22T02:10:00.016Z,4.86
2023-03-22T02:10:34.278Z,4.86
2023-03-22T02:11:04.183Z,4.86
2023-03-22T02:11:35.689Z,4.86
2023-03-22T02:12:07.774Z,4.86
2023-03-22T02:12:36.075Z,4.86
2023-03-22T02:12:55.596Z,4.86
2023-03-22T02:13:11.992Z,4.86
2023-03-22T02:13:36.282Z,4.86
2023-03-22T02:13:59.824Z,4.75
2023-03-22T02:14:32.022Z,4.75
2023-03-22T02:15:06.513Z,4.75
2023-03-22T02:15:35.887Z,4.75
2023-03-22T02:16:07.777Z,4.75
2023-03-22T02:16:35.981Z,4.75
2023-03-22T02:16:56.138Z,4.65
2023-03-22T02:17:28.374Z,4.65
2023-03-22T02:17:59.911Z,4.65
2023-03-22T02:18:32.581Z,4.65
2023-03-22T02:19:06.253Z,4.65
2023-03-22T02:19:35.558Z,4.53
2023-03-22T02:19:51.966Z,4.53
2023-03-22T02:20:24.190Z,4.69
2023-03-22T02:20:55.425Z,4.58
2023-03-22T02:21:12.203Z,4.58
2023-03-22T02:21:35.908Z,4.58
2023-03-22T02:21:59.534Z,4.58
2023-03-22T02:22:31.994Z,4.58
2023-03-22T02:23:03.481Z,4.58
2023-03-22T02:23:35.435Z,4.69
2023-03-22T02:23:52.000Z,4.69
2023-03-22T02:24:23.773Z,4.69
2023-03-22T02:24:55.610Z,4.69
2023-03-22T02:25:12.591Z,4.69
2023-03-22T02:25:36.302Z,4.81
2023-03-22T02:26:00.240Z,4.81
2023-03-22T02:26:32.016Z,4.81
2023-03-22T02:27:03.344Z,4.92
2023-03-22T02:27:35.802Z,4.92
2023-03-22T02:28:07.547Z,4.92
2023-03-22T02:28:35.952Z,4.92
2023-03-22T02:28:55.860Z,4.92
2023-03-22T02:29:31.088Z,4.92
2023-03-22T02:30:02.915Z,4.92
2023-03-22T02:30:32.435Z,4.92
2023-03-22T02:31:04.921Z,4.92
2023-03-22T02:31:35.834Z,4.92
2023-03-22T02:32:07.873Z,4.92
2023-03-22T02:32:36.947Z,4.92
2023-03-22T02:32:55.790Z,4.92
2023-03-22T02:33:29.082Z,4.92
2023-03-22T02:34:01.121Z,5.02
2023-03-22T02:34:32.428Z,5.02
2023-03-22T02:35:05.162Z,5.02
2023-03-22T02:35:36.905Z,5.02
2023-03-22T02:36:07.547Z,5.02
2023-03-22T02:36:36.235Z,5.02
2023-03-22T02:37:10.676Z,5.02
2023-03-22T02:37:27.722Z,5.02
2023-03-22T02:38:00.158Z,5.02
2023-03-22T02:38:33.623Z,5.02
2023-03-22T02:39:03.976Z,5.02
2023-03-22T02:39:36.012Z,5.02
2023-03-22T02:40:09.000Z,5.02
2023-03-22T02:40:36.275Z,5.02
2023-03-22T02:40:56.396Z,5.02
2023-03-22T02:41:14.567Z,5.02
2023-03-22T02:41:36.798Z,5.02
2023-03-22T02:42:00.199Z,5.02
2023-03-22T02:42:33.260Z,5.02
2023-03-22T02:43:05.712Z,4.86
2023-03-22T02:43:35.755Z,4.86
2023-03-22T02:43:52.595Z,4.86
2023-03-22T02:44:24.942Z,4.86
2023-03-22T02:44:55.861Z,4.91
2023-03-22T02:45:29.117Z,4.91
2023-03-22T02:45:59.724Z,4.91
2023-03-22T02:46:32.644Z,4.91
2023-03-22T02:47:05.230Z,4.91
2023-03-22T02:47:37.033Z,4.91
2023-03-22T02:48:07.557Z,4.91
2023-03-22T02:48:36.311Z,4.91
2023-03-22T02:48:56.484Z,4.91
2023-03-22T02:49:28.526Z,4.91
2023-03-22T02:49:59.519Z,4.91
2023-03-22T02:50:32.488Z,4.91
2023-03-22T02:51:04.434Z,4.91
2023-03-22T02:51:36.336Z,4.91
2023-03-22T02:52:08.299Z,4.91
2023-03-22T02:52:36.134Z,4.91
2023-03-22T02:52:56.998Z,4.91
2023-03-22T02:53:28.620Z,4.91
2023-03-22T02:54:00.538Z,4.91
2023-03-22T02:54:34.080Z,4.91
2023-03-22T02:55:05.745Z,4.91
2023-03-22T02:55:36.693Z,5.02
2023-03-22T02:56:07.503Z,5.02
2023-03-22T02:56:37.216Z,5.02
2023-03-22T02:56:55.828Z,5.02
2023-03-22T02:57:28.847Z,5.02
2023-03-22T02:58:00.007Z,5.02
2023-03-22T02:58:32.259Z,5.02
2023-03-22T02:59:04.190Z,5.02
2023-03-22T02:59:36.044Z,5.02
2023-03-22T03:00:08.724Z,5.02
2023-03-22T03:00:38.311Z,5.02
2023-03-22T03:00:56.593Z,5.14
2023-03-22T03:01:28.366Z,5.14
2023-03-22T03:02:01.028Z,5.14
2023-03-22T03:02:32.661Z,5.14
2023-03-22T03:03:04.449Z,5.14
2023-03-22T03:03:36.256Z,5.14
2023-03-22T03:04:07.694Z,5.14
2023-03-22T03:04:36.541Z,5.14
2023-03-22T03:04:56.010Z,5.14
2023-03-22T03:05:28.167Z,5.14
2023-03-22T03:06:00.448Z,5.25
2023-03-22T03:06:34.407Z,5.09
2023-03-22T03:07:04.566Z,5.09
2023-03-22T03:07:36.116Z,5.19
2023-03-22T03:08:07.723Z,5.19
2023-03-22T03:08:36.071Z,5.19
2023-03-22T03:08:55.849Z,5.19
2023-03-22T03:09:12.132Z,5.24
2023-03-22T03:09:36.088Z,5.24
2023-03-22T03:09:59.476Z,5.09
2023-03-22T03:10:32.688Z,5.24
2023-03-22T03:11:05.431Z,5.20
2023-03-22T03:11:36.711Z,5.20
2023-03-22T03:12:07.463Z,5.20
2023-03-22T03:12:36.229Z,5.20
2023-03-22T03:12:55.668Z,5.20
2023-03-22T03:13:12.464Z,5.20
2023-03-22T03:13:36.050Z,5.20
2023-03-22T03:13:59.494Z,5.32
2023-03-22T03:14:32.092Z,5.32
2023-03-22T03:15:05.361Z,5.32
2023-03-22T03:15:35.524Z,5.32
2023-03-22T03:15:52.690Z,5.32
2023-03-22T03:16:24.200Z,5.32
2023-03-22T03:16:55.796Z,5.32
2023-03-22T03:17:27.509Z,5.43
2023-03-22T03:17:59.603Z,5.43
2023-03-22T03:18:32.075Z,5.43
2023-03-22T03:19:03.456Z,5.26
2023-03-22T03:19:35.426Z,5.26
2023-03-22T03:19:51.873Z,5.53
2023-03-22T03:20:24.832Z,5.53
2023-03-22T03:20:55.650Z,5.53
2023-03-22T03:21:12.247Z,5.53
2023-03-22T03:21:36.129Z,5.53
2023-03-22T03:21:59.518Z,5.53
2023-03-22T03:22:32.196Z,5.53
2023-03-22T03:23:03.532Z,5.37
2023-03-22T03:23:35.521Z,5.37
2023-03-22T03:23:51.944Z,5.37
2023-03-22T03:24:23.826Z,5.37
2023-03-22T03:24:55.674Z,5.37
2023-03-22T03:25:13.055Z,5.37
2023-03-22T03:25:36.079Z,5.37
2023-03-22T03:25:59.964Z,5.37
2023-03-22T03:26:32.268Z,5.42
2023-03-22T03:27:03.786Z,5.42
2023-03-22T03:27:35.495Z,5.42
2023-03-22T03:27:52.087Z,5.42
2023-03-22T03:28:23.814Z,5.42
2023-03-22T03:28:55.664Z,5.42
2023-03-22T03:29:12.139Z,5.42
2023-03-22T03:29:36.171Z,5.42
2023-03-22T03:29:59.526Z,5.42
2023-03-22T03:30:32.942Z,5.42
2023-03-22T03:31:03.812Z,5.42
2023-03-22T03:31:35.594Z,5.42
2023-03-22T03:31:52.366Z,5.42
2023-03-22T03:32:24.297Z,5.42
2023-03-22T03:32:55.729Z,5.42
2023-03-22T03:33:12.204Z,5.42
2023-03-22T03:33:36.875Z,5.42
2023-03-22T03:33:59.421Z,5.42
2023-03-22T03:34:32.066Z,5.53
2023-03-22T03:35:05.052Z,5.53
2023-03-22T03:35:35.702Z,5.53
2023-03-22T03:36:07.567Z,5.53
2023-03-22T03:36:36.077Z,5.53
2023-03-22T03:36:55.698Z,5.53
2023-03-22T03:37:12.033Z,5.53
2023-03-22T03:37:35.981Z,5.53
2023-03-22T03:37:59.499Z,5.53
2023-03-22T03:38:34.130Z,5.53
2023-03-22T03:39:03.526Z,5.53
2023-03-22T03:39:35.387Z,5.53
2023-03-22T03:39:51.870Z,5.53
2023-03-22T03:40:24.340Z,5.53
2023-03-22T03:40:55.685Z,5.53
2023-03-22T03:41:12.157Z,5.53
2023-03-22T03:41:35.922Z,5.53
2023-03-22T03:41:59.434Z,5.53
2023-03-22T03:42:32.111Z,5.37
2023-03-22T03:43:03.577Z,5.37
2023-03-22T03:43:35.449Z,5.37
2023-03-22T03:43:51.982Z,5.37
2023-03-22T03:44:23.802Z,5.37
2023-03-22T03:44:55.870Z,5.37
2023-03-22T03:45:13.071Z,5.53
2023-03-22T03:45:36.377Z,5.37
2023-03-22T03:46:00.345Z,5.53
2023-03-22T03:46:32.560Z,5.53
2023-03-22T03:47:03.581Z,5.37
2023-03-22T03:47:35.725Z,5.37
2023-03-22T03:48:07.699Z,5.37
2023-03-22T03:48:36.044Z,5.42
2023-03-22T03:48:55.669Z,5.42
2023-03-22T03:49:12.114Z,5.42
2023-03-22T03:49:36.305Z,5.42
2023-03-22T03:49:59.567Z,5.42
2023-03-22T03:50:32.633Z,5.42
2023-03-22T03:51:03.444Z,5.42
2023-03-22T03:51:35.588Z,5.53
2023-03-22T03:51:51.788Z,5.53
2023-03-22T03:52:23.824Z,5.53
2023-03-22T03:52:55.772Z,5.53
2023-03-22T03:53:13.167Z,5.53
2023-03-22T03:53:36.406Z,5.53
2023-03-22T03:53:59.453Z,5.53
2023-03-22T03:54:32.115Z,5.53
2023-03-22T03:55:05.068Z,5.53
2023-03-22T03:55:35.836Z,5.53
2023-03-22T03:55:52.278Z,5.53
2023-03-22T03:56:24.433Z,5.53
2023-03-22T03:56:55.740Z,5.53
2023-03-22T03:57:12.131Z,5.53
2023-03-22T03:57:37.115Z,5.53
2023-03-22T03:57:59.538Z,5.53
2023-03-22T03:58:32.032Z,5.53
2023-03-22T03:59:03.966Z,5.53
2023-03-22T03:59:36.401Z,5.53
2023-03-22T04:00:08.599Z,5.65
2023-03-22T04:00:36.126Z,5.53
2023-03-22T04:00:56.050Z,5.53
2023-03-22T04:01:12.189Z,5.53
2023-03-22T04:01:36.073Z,5.53
2023-03-22T04:01:59.612Z,5.53
2023-03-22T04:02:32.507Z,5.53
2023-03-22T04:03:03.477Z,5.53
2023-03-22T04:03:35.475Z,5.53
2023-03-22T04:03:51.835Z,5.53
2023-03-22T04:04:23.763Z,5.69
2023-03-22T04:04:55.609Z,5.69
2023-03-22T04:05:12.681Z,5.53
2023-03-22T04:05:36.013Z,5.42
2023-03-22T04:05:59.829Z,5.58
2023-03-22T04:06:32.952Z,5.58
2023-03-22T04:07:03.650Z,5.58
2023-03-22T04:07:35.455Z,5.58
2023-03-22T04:07:53.162Z,5.58
2023-03-22T04:08:23.456Z,5.58
2023-03-22T04:08:55.725Z,5.58
2023-03-22T04:09:12.201Z,5.58
2023-03-22T04:09:36.179Z,5.58
2023-03-22T04:09:59.541Z,5.58
2023-03-22T04:10:32.393Z,5.58
2023-03-22T04:11:03.698Z,5.58
2023-03-22T04:11:35.602Z,5.58
2023-03-22T04:11:52.005Z,5.58
2023-03-22T04:12:24.023Z,5.58
2023-03-22T04:12:55.533Z,5.58
2023-03-22T04:13:12.149Z,5.42
2023-03-22T04:13:36.047Z,5.58
2023-03-22T04:13:59.663Z,5.58
2023-03-22T04:14:32.160Z,5.58
2023-03-22T04:15:05.696Z,5.58
2023-03-22T04:15:35.486Z,5.58
2023-03-22T04:15:52.329Z,5.58
2023-03-22T04:16:23.921Z,5.58
2023-03-22T04:16:55.770Z,5.58
2023-03-22T04:17:12.467Z,5.58
2023-03-22T04:17:37.207Z,5.58
2023-03-22T04:17:59.410Z,5.58
2023-03-22T04:18:32.134Z,5.58
2023-03-22T04:19:03.414Z,5.42
2023-03-22T04:19:35.525Z,5.42
2023-03-22T04:19:52.153Z,5.42
2023-03-22T04:20:24.238Z,5.42
2023-03-22T04:20:55.513Z,5.42
2023-03-22T04:21:12.274Z,5.42
2023-03-22T04:21:36.010Z,5.42
2023-03-22T04:21:59.594Z,5.42
2023-03-22T04:22:32.072Z,5.42
2023-03-22T04:23:03.468Z,5.42
2023-03-22T04:23:35.685Z,5.42
2023-03-22T04:23:51.948Z,5.58
2023-03-22T04:24:23.782Z,5.42
2023-03-22T04:24:55.661Z,5.58
2023-03-22T04:25:12.654Z,5.58
2023-03-22T04:25:36.027Z,5.58
2023-03-22T04:25:59.953Z,5.58
2023-03-22T04:26:32.163Z,5.42
2023-03-22T04:27:03.515Z,5.58
2023-03-22T04:27:35.695Z,5.58
2023-03-22T04:28:07.565Z,5.58
2023-03-22T04:28:36.112Z,5.58
2023-03-22T04:28:55.620Z,5.42
2023-03-22T04:29:12.201Z,5.58
2023-03-22T04:29:36.528Z,5.42
2023-03-22T04:29:59.512Z,5.58
2023-03-22T04:30:33.250Z,5.58
2023-03-22T04:31:03.523Z,5.58
2023-03-22T04:31:35.469Z,5.58
2023-03-22T04:31:51.818Z,5.58
2023-03-22T04:32:23.895Z,5.58
2023-03-22T04:32:55.516Z,5.58
2023-03-22T04:33:12.131Z,5.58
2023-03-22T04:33:36.060Z,5.58
2023-03-22T04:33:59.421Z,5.53
2023-03-22T04:34:32.098Z,5.53
2023-03-22T04:35:04.908Z,5.53
2023-03-22T04:35:35.676Z,5.53
2023-03-22T04:35:52.645Z,5.53
2023-03-22T04:36:23.888Z,5.53
2023-03-22T04:36:55.705Z,5.53
2023-03-22T04:37:30.619Z,5.53
2023-03-22T04:37:59.802Z,5.43
2023-03-22T04:38:32.505Z,5.43
2023-03-22T04:39:03.440Z,5.43
2023-03-22T04:39:35.488Z,5.43
2023-03-22T04:39:52.251Z,5.43
2023-03-22T04:40:24.510Z,5.43
2023-03-22T04:40:55.553Z,5.43
2023-03-22T04:41:12.737Z,5.43
2023-03-22T04:41:36.188Z,5.43
2023-03-22T04:41:59.511Z,5.43
2023-03-22T04:42:32.022Z,5.43
2023-03-22T04:43:03.541Z,5.43
2023-03-22T04:43:35.554Z,5.43
2023-03-22T04:43:51.955Z,5.43
2023-03-22T04:44:24.020Z,5.43
2023-03-22T04:44:55.574Z,5.43
2023-03-22T04:45:13.075Z,5.43
2023-03-22T04:45:36.599Z,5.43
2023-03-22T04:45:59.905Z,5.32
2023-03-22T04:46:32.523Z,5.32
2023-03-22T04:47:03.494Z,5.32
2023-03-22T04:47:35.889Z,5.47
2023-03-22T04:47:51.945Z,5.47
2023-03-22T04:48:23.937Z,5.32
2023-03-22T04:48:55.930Z,5.32
2023-03-22T04:49:13.325Z,5.32
2023-03-22T04:49:36.333Z,5.32
2023-03-22T04:49:59.540Z,5.32
2023-03-22T04:50:33.210Z,5.32
2023-03-22T04:51:03.780Z,5.43
2023-03-22T04:51:35.676Z,5.43
2023-03-22T04:52:07.435Z,5.43
2023-03-22T04:52:36.111Z,5.43
2023-03-22T04:52:55.993Z,5.43
2023-03-22T04:53:12.457Z,5.43
2023-03-22T04:53:36.120Z,5.43
2023-03-22T04:53:59.553Z,5.43
2023-03-22T04:54:32.076Z,5.43
2023-03-22T04:55:04.905Z,5.58
2023-03-22T04:55:35.478Z,5.43
2023-03-22T04:55:52.189Z,5.43
2023-03-22T04:56:24.280Z,5.43
2023-03-22T04:56:55.605Z,5.43
2023-03-22T04:57:12.091Z,5.43
2023-03-22T04:57:36.169Z,5.43
2023-03-22T04:57:59.867Z,5.43
2023-03-22T04:58:32.148Z,5.43
2023-03-22T04:59:03.602Z,5.43
2023-03-22T04:59:35.662Z,5.43
2023-03-22T04:59:51.806Z,5.43
2023-03-22T05:00:24.978Z,5.43
2023-03-22T05:00:55.591Z,5.43
2023-03-22T05:01:12.106Z,5.43
2023-03-22T05:01:36.654Z,5.43
2023-03-22T05:01:59.678Z,5.32
2023-03-22T05:02:32.522Z,5.32
2023-03-22T05:03:03.705Z,5.32
2023-03-22T05:03:35.462Z,5.32
2023-03-22T05:03:51.853Z,5.32
2023-03-22T05:04:23.886Z,5.32
2023-03-22T05:04:55.564Z,5.47
2023-03-22T05:05:12.527Z,5.47
2023-03-22T05:05:36.087Z,5.47
2023-03-22T05:05:59.858Z,5.47
2023-03-22T05:06:32.289Z,5.47
2023-03-22T05:07:03.522Z,5.35
2023-03-22T05:07:35.576Z,5.35
2023-03-22T05:07:51.931Z,5.35
2023-03-22T05:08:23.745Z,5.35
2023-03-22T05:08:55.752Z,5.35
2023-03-22T05:09:12.687Z,5.35
2023-03-22T05:09:36.032Z,5.35
2023-03-22T05:09:59.719Z,5.35
2023-03-22T05:10:32.816Z,5.35
2023-03-22T05:11:03.949Z,5.35
2023-03-22T05:11:35.776Z,5.35
2023-03-22T05:11:52.129Z,5.35
2023-03-22T05:12:24.222Z,5.35
2023-03-22T05:12:55.727Z,5.35
2023-03-22T05:13:12.403Z,5.35
2023-03-22T05:13:36.355Z,5.35
2023-03-22T05:13:59.686Z,5.35
2023-03-22T05:14:32.585Z,5.35
2023-03-22T05:15:06.207Z,5.35
2023-03-22T05:15:36.142Z,5.35
2023-03-22T05:16:07.765Z,5.35
2023-03-22T05:16:36.423Z,5.35
2023-03-22T05:16:55.732Z,5.35
2023-03-22T05:17:12.390Z,5.35
2023-03-22T05:17:36.545Z,5.35
2023-03-22T05:17:59.663Z,5.35
2023-03-22T05:18:32.338Z,5.35
2023-03-22T05:19:03.727Z,5.35
2023-03-22T05:19:36.069Z,5.35
2023-03-22T05:20:08.558Z,5.35
2023-03-22T05:20:36.584Z,5.35
2023-03-22T05:20:56.171Z,5.35
2023-03-22T05:21:12.228Z,5.35
2023-03-22T05:21:36.282Z,5.47
2023-03-22T05:22:00.217Z,5.47
2023-03-22T05:22:32.355Z,5.47
2023-03-22T05:23:03.705Z,5.47
2023-03-22T05:23:36.044Z,5.47
2023-03-22T05:23:52.320Z,5.47
2023-03-22T05:24:24.266Z,5.35
2023-03-22T05:24:55.874Z,5.35
2023-03-22T05:25:28.111Z,5.35
2023-03-22T05:25:59.723Z,5.35
2023-03-22T05:26:32.350Z,5.35
2023-03-22T05:27:03.950Z,5.35
2023-03-22T05:27:36.100Z,5.35
2023-03-22T05:28:07.783Z,5.35
2023-03-22T05:28:36.368Z,5.35
2023-03-22T05:28:55.758Z,5.35
2023-03-22T05:29:12.587Z,5.35
2023-03-22T05:29:36.439Z,5.35
2023-03-22T05:29:59.996Z,5.35
2023-03-22T05:30:33.301Z,5.35
2023-03-22T05:31:03.859Z,5.35
2023-03-22T05:31:35.854Z,5.35
2023-03-22T05:31:52.227Z,5.35
2023-03-22T05:32:24.226Z,5.35
2023-03-22T05:32:55.857Z,5.47
2023-03-22T05:33:28.442Z,5.32
2023-03-22T05:33:59.945Z,5.32
2023-03-22T05:34:32.547Z,5.32
2023-03-22T05:35:05.346Z,5.32
2023-03-22T05:35:35.803Z,5.43
2023-03-22T05:35:52.546Z,5.43
2023-03-22T05:36:24.034Z,5.43
2023-03-22T05:36:55.797Z,5.43
2023-03-22T05:37:12.708Z,5.43
2023-03-22T05:37:36.836Z,5.43
2023-03-22T05:37:59.776Z,5.43
2023-03-22T05:38:32.673Z,5.43
2023-03-22T05:39:03.855Z,5.53
2023-03-22T05:39:35.891Z,5.53
2023-03-22T05:39:52.211Z,5.53
2023-03-22T05:40:25.253Z,5.53
2023-03-22T05:40:55.820Z,5.53
2023-03-22T05:41:12.890Z,5.53
2023-03-22T05:41:37.007Z,5.53
2023-03-22T05:41:59.692Z,5.58
2023-03-22T05:42:32.344Z,5.58
2023-03-22T05:43:03.782Z,5.58
2023-03-22T05:43:36.093Z,5.58
2023-03-22T05:44:07.727Z,5.58
2023-03-22T05:44:36.281Z,5.58
2023-03-22T05:44:55.780Z,5.58
2023-03-22T05:45:13.447Z,5.58
2023-03-22T05:45:37.122Z,5.42
2023-03-22T05:46:00.161Z,5.58
2023-03-22T05:46:32.494Z,5.58
2023-03-22T05:47:03.776Z,5.58
2023-03-22T05:47:35.664Z,5.42
2023-03-22T05:47:52.184Z,5.42
2023-03-22T05:48:24.145Z,5.58
2023-03-22T05:48:56.319Z,5.42
2023-03-22T05:49:12.459Z,5.58
2023-03-22T05:49:36.294Z,5.58
2023-03-22T05:49:59.757Z,5.53
2023-03-22T05:50:33.938Z,5.53
2023-03-22T05:51:03.676Z,5.53
2023-03-22T05:51:35.634Z,5.53
2023-03-22T05:51:52.261Z,5.53
2023-03-22T05:52:24.127Z,5.53
2023-03-22T05:52:55.754Z,5.53
2023-03-22T05:53:12.430Z,5.53
2023-03-22T05:53:36.255Z,5.53
2023-03-22T05:53:59.726Z,5.65
2023-03-22T05:54:32.327Z,5.65
2023-03-22T05:55:05.245Z,5.65
2023-03-22T05:55:35.666Z,5.65
2023-03-22T05:55:52.543Z,5.65
2023-03-22T05:56:24.637Z,5.53
2023-03-22T05:56:55.917Z,5.53
2023-03-22T05:57:12.335Z,5.53
2023-03-22T05:57:36.360Z,5.53
2023-03-22T05:57:59.938Z,5.65
2023-03-22T05:58:32.395Z,5.65
2023-03-22T05:59:03.728Z,5.65
2023-03-22T05:59:36.027Z,5.65
2023-03-22T05:59:52.356Z,5.65
2023-03-22T06:00:25.074Z,5.65
2023-03-22T06:00:55.855Z,5.65
2023-03-22T06:01:12.808Z,5.65
2023-03-22T06:01:36.357Z,5.65
2023-03-22T06:01:59.891Z,5.65
2023-03-22T06:02:32.238Z,5.65
2023-03-22T06:03:04.011Z,5.65
2023-03-22T06:03:35.776Z,5.65
2023-03-22T06:03:53.059Z,5.65
2023-03-22T06:04:24.076Z,5.65
2023-03-22T06:04:55.883Z,5.65
2023-03-22T06:05:12.693Z,5.53
2023-03-22T06:05:37.042Z,5.53
2023-03-22T06:06:00.158Z,5.53
2023-03-22T06:06:32.289Z,5.65
2023-03-22T06:07:03.787Z,5.65
2023-03-22T06:07:35.740Z,5.65
2023-03-22T06:07:52.004Z,5.65
2023-03-22T06:08:26.544Z,5.65
2023-03-22T06:09:04.277Z,5.65